Airfield :
LOGIN :

Register | Disclaimer

   EN    FR    IT 

 










Legend :    VFR   Marginal VFR   IFR   Intensive IFR   Very Intensive IFR
Visi :
Ceiling :
>= 8 km
>= 3000ft
5 to 8 km
1000 to 3000 ft
1500m to 5 km
500 to 1000 ft
800 to 1500m
200 to 500 ft
< 800m
< 200 ft
Symbols :   Thunderstorms  Fog  Heavy snow  Heavy precipitations  Wind > 20 kt
SIGMETs :     Misc.  Thunderstorms  Icing  Turbulence  Mountain Waves  Volcanic Ashes






- Airport Elevation : 135 ft
- IATA code : EDI


EGPH - Edinburgh

CURRENT METAR :
  • 280850Z 22008KT 190V270 9999 FEW019 05/02 Q1000

EXPIRED METARs :
  • 280820Z 18008KT CAVOK 05/02 Q1000
  • 280750Z 17008KT CAVOK 05/01 Q1001
  • 280720Z 20012KT CAVOK 04/02 Q1001
  • 280650Z 21012KT CAVOK 04/01 Q1002
  • 280620Z 21009KT CAVOK 03/01 Q1002

TAF TAF EGPH
Valid from the 28 at 06:00 until the 29 at 06:00 UTC


280454Z 2806/2906 23009KT 9999 FEW030
BECMG 2808/2811 15010KT
TEMPO 2809/2818 5000 RA BKN012
PROB40
TEMPO 2812/2818 3000 +RADZ RASN BKN005
BECMG 2814/2817 07008KT
TEMPO 2818/2904 BKN012
PROB40
TEMPO 2818/2904 2000 DZRA BR BKN003
BECMG 2904/2906 24012KT
TEMPO 2904/2906 25015G25KT 5000 RA BKN008
ATIS : +44 131 339 2823



MET'MAP, your aeronautical weather chart ! - Copyright ORBIFLY December 2007 - Disclaimer

ORBIFLY MET'MAP TEAM :

Programming & Development : Alexandra Zaïnal
Concept & original design : Baudouin d'Aumeries
Assistance for programming : Marc-Olivier Méhu
Technical & hardware support : Manuel Goepfert

Contact : metmap@orbifly.com




SOURCES & CREDITS :

   NOAA